Justiniano Posse, Argentina
Current Conditions -  °F | °C
As of 6:00 PM on Tuesday 21 Oct 2014 (Local Time) from SAOC Reporting Station
Clear Clear  
Wind Chill: 88°   Ceiling: Unl
Heat Index: 88°   Visibility: 6mi
Dew Point: 57°   Wind: 32mph
Humidity: 35%   Direction: 360°N
Pressure: 29.85"   Gusts: 46mph
Location:  32.88°S, 62.67°W
Report Text: SAOC 212100Z 36028G40KT CAVOK 31/14 Q1011
Loading
Personal Weather Stations






























Interactive Weather Map
Tropical Storm Tracking
New forecast layout! Learn more

10-Day Weather Forecast

Advertisements
Track Severe Weather on mobile